Fecha, hora, temperatura, viento dirección y velocidad, humedad y presión.

  • 16-09-2019 00:00:00 | 24.10°C | Nordeste |13.00 km/h | 88.00% | 1016.30 hPa
  • 15-09-2019 23:00:00 | 24.50°C | Nordeste |16.00 km/h | 86.00% | 1016.50 hPa
  • 15-09-2019 22:00:00 | 24.50°C | Nordeste |17.00 km/h | 86.00% | 1016.40 hPa
  • 15-09-2019 21:00:00 | 24.70°C | Nordeste |15.00 km/h | 86.00% | 1015.80 hPa
  • 15-09-2019 20:00:00 | 24.70°C | Nordeste |17.00 km/h | 88.00% | 1015.50 hPa
  • 15-09-2019 19:00:00 | 24.90°C | Nordeste |24.00 km/h | 87.00% | 1014.90 hPa
  • 15-09-2019 18:00:00 | 25.40°C | Nordeste |22.00 km/h | 82.00% | 1015.30 hPa
  • 15-09-2019 17:00:00 | 25.80°C | Nordeste |21.00 km/h | 81.00% | 1015.60 hPa
  • 15-09-2019 16:00:00 | 26.20°C | Nordeste |22.00 km/h | 78.00% | 1015.80 hPa
  • 15-09-2019 15:00:00 | 26.40°C | Este |23.00 km/h | 76.00% | 1016.20 hPa
  • 15-09-2019 14:00:00 | 26.40°C | Nordeste |25.00 km/h | 79.00% | 1016.60 hPa
  • 15-09-2019 13:00:00 | 25.90°C | Este |24.00 km/h | 82.00% | 1017.10 hPa
  • 15-09-2019 12:00:00 | 25.50°C | Este |25.00 km/h | 84.00% | 1017.10 hPa
  • 15-09-2019 11:00:00 | 25.20°C | Nordeste |26.00 km/h | 84.00% | 1017.00 hPa
  • 15-09-2019 10:00:00 | 24.70°C | Nordeste |27.00 km/h | 84.00% | 1016.60 hPa
  • 15-09-2019 09:00:00 | 24.00°C | Nordeste |27.00 km/h | 84.00% | 1016.20 hPa
  • 15-09-2019 08:00:00 | 23.00°C | Nordeste |21.00 km/h | 85.00% | 1016.00 hPa
  • 15-09-2019 07:00:00 | 23.20°C | Nordeste |21.00 km/h | 84.00% | 1016.20 hPa
  • 15-09-2019 06:00:00 | 22.60°C | Nordeste |17.00 km/h | 88.00% | 1016.50 hPa
  • 15-09-2019 05:00:00 | 23.10°C | Nordeste |17.00 km/h | 87.00% | 1016.60 hPa
  • 15-09-2019 04:00:00 | 23.50°C | Nordeste |16.00 km/h | 85.00% | 1017.00 hPa
  • 15-09-2019 03:00:00 | 23.70°C | Norte |10.00 km/h | 86.00% | 1017.50 hPa
  • 15-09-2019 02:00:00 | 24.00°C | Nordeste |21.00 km/h | 85.00% | 1017.40 hPa
  • 15-09-2019 01:00:00 | 24.20°C | Nordeste |25.00 km/h | 85.00% | 1017.40 hPa
    • diseño web asturias Información sobre el estado de las mareas, altura de la marejada, temperatura del agua y otros datos de Gijón en Asturias.

      Surf Gijón